Time;durP1;ratioP1;P1;durP2;ratioP2;P2;SDS_P1;SDS_P2;PMS_P1;PMS_P2;Temp;Humidity;BMP_temperature;BMP_pressure;BME280_temperature;BME280_humidity;BME280_pressure;Samples;Min_cycle;Max_cycle;Signal;HPM_P1;HPM_P2
2022/04/15 00:02:10;;;;;;;21.55;12.05;;;5.60;99.90;;;;;;5013206;28;20041;-82
2022/04/15 00:04:37;;;;;;;24.58;12.32;;;5.60;99.90;;;;;;4997294;28;20036;-82
2022/04/15 00:07:03;;;;;;;19.73;11.10;;;5.50;99.90;;;;;;4998182;28;20377;-82
2022/04/15 00:09:30;;;;;;;19.35;11.63;;;5.50;99.90;;;;;;5014916;28;20472;-83
2022/04/15 00:12:00;;;;;;;21.90;11.27;;;5.50;99.90;;;;;;4999170;28;20051;-82
2022/04/15 00:14:26;;;;;;;21.30;11.57;;;5.50;99.90;;;;;;5031382;28;20059;-82
2022/04/15 00:16:51;;;;;;;19.23;11.10;;;5.60;99.90;;;;;;5031340;28;20049;-83
2022/04/15 00:19:17;;;;;;;21.80;10.80;;;5.60;99.90;;;;;;5011776;28;20095;-82
2022/04/15 00:21:43;;;;;;;23.95;11.15;;;5.80;99.90;;;;;;4997833;28;20094;-82
2022/04/15 00:24:09;;;;;;;19.60;11.43;;;5.80;99.90;;;;;;5014179;28;20053;-82
2022/04/15 00:26:34;;;;;;;20.55;11.57;;;5.80;99.90;;;;;;5014786;28;20052;-84
2022/04/15 00:29:00;;;;;;;20.35;10.25;;;5.80;99.90;;;;;;4994080;28;20074;-85
2022/04/15 00:31:26;;;;;;;18.52;10.57;;;6.00;99.90;;;;;;5029789;28;20041;-82
2022/04/15 00:33:52;;;;;;;19.67;10.25;;;6.10;99.90;;;;;;5045774;28;20040;-82
2022/04/15 00:36:17;;;;;;;22.58;9.80;;;6.20;99.90;;;;;;5013455;28;20478;-82
2022/04/15 00:38:43;;;;;;;18.63;10.00;;;6.30;99.90;;;;;;5014423;28;20056;-81
2022/04/15 00:41:16;;;;;;;16.88;10.95;;;6.30;99.90;;;;;;5008882;28;20037;-81
2022/04/15 00:43:42;;;;;;;19.17;11.23;;;6.40;99.90;;;;;;5005708;28;20083;-83
2022/04/15 00:46:08;;;;;;;18.73;11.40;;;6.50;99.90;;;;;;5025440;28;20482;-82
2022/04/15 00:48:38;;;;;;;17.25;10.18;;;6.60;99.90;;;;;;5013274;28;20048;-83
2022/04/15 00:51:05;;;;;;;21.10;10.82;;;6.70;99.90;;;;;;5013309;28;20119;-85
2022/04/15 00:53:32;;;;;;;17.30;10.18;;;6.60;99.90;;;;;;4994605;28;20116;-82
2022/04/15 00:56:01;;;;;;;17.02;9.93;;;6.60;99.90;;;;;;5013188;28;20077;-82
2022/04/15 00:58:28;;;;;;;18.63;9.82;;;6.70;99.90;;;;;;4995002;28;20045;-82
2022/04/15 01:00:57;;;;;;;21.80;10.18;;;6.70;99.90;;;;;;4989958;28;20819;-84
2022/04/15 01:03:23;;;;;;;15.88;10.05;;;6.80;99.90;;;;;;4996884;28;20045;-81
2022/04/15 01:05:57;;;;;;;17.67;9.82;;;6.90;99.90;;;;;;5017943;28;20101;-81
2022/04/15 01:08:25;;;;;;;18.95;9.25;;;6.90;99.90;;;;;;5026302;28;20104;-81
2022/04/15 01:10:53;;;;;;;19.05;9.98;;;7.00;99.90;;;;;;5012621;28;20038;-82
2022/04/15 01:13:21;;;;;;;20.52;9.52;;;7.10;99.90;;;;;;5029390;28;20080;-81
2022/04/15 01:15:48;;;;;;;20.48;10.30;;;7.00;99.90;;;;;;5027810;28;20045;-82
2022/04/15 01:18:14;;;;;;;16.17;9.98;;;7.10;99.90;;;;;;4992374;28;20045;-83
2022/04/15 01:20:42;;;;;;;22.20;10.32;;;7.10;99.90;;;;;;5014210;28;20037;-83
2022/04/15 01:23:09;;;;;;;19.35;10.75;;;7.10;99.90;;;;;;4977416;28;20049;-82
2022/04/15 01:25:35;;;;;;;16.70;9.85;;;7.10;99.90;;;;;;5011850;28;20041;-82
2022/04/15 01:28:01;;;;;;;15.65;9.80;;;7.20;99.90;;;;;;5015479;28;20105;-82
2022/04/15 01:30:27;;;;;;;15.52;10.00;;;7.20;99.90;;;;;;4993449;28;20863;-82
2022/04/15 01:32:53;;;;;;;20.25;10.50;;;7.30;99.90;;;;;;5006774;28;20064;-81
2022/04/15 01:35:19;;;;;;;20.85;9.93;;;7.30;99.90;;;;;;5005703;28;20884;-80
2022/04/15 01:37:47;;;;;;;18.02;9.38;;;7.30;99.90;;;;;;5015821;28;20076;-82
2022/04/15 01:40:14;;;;;;;22.85;10.43;;;7.40;99.90;;;;;;5024155;28;20040;-81
2022/04/15 01:42:41;;;;;;;15.50;9.35;;;7.40;99.90;;;;;;5034095;28;20044;-81
2022/04/15 01:45:08;;;;;;;16.92;10.52;;;7.40;99.90;;;;;;5016789;28;20064;-85
2022/04/15 01:47:34;;;;;;;19.60;10.55;;;7.50;99.90;;;;;;5031967;28;20079;-84
2022/04/15 01:50:02;;;;;;;20.02;9.95;;;7.50;99.90;;;;;;5000348;28;20044;-82
2022/04/15 01:52:28;;;;;;;17.88;9.85;;;7.50;99.90;;;;;;5014075;28;20044;-82
2022/04/15 01:54:54;;;;;;;18.90;10.13;;;7.50;99.90;;;;;;5013995;28;20029;-83
2022/04/15 01:57:19;;;;;;;14.15;9.25;;;7.50;99.90;;;;;;5032602;28;20493;-82
2022/04/15 01:59:45;;;;;;;15.20;9.68;;;7.50;99.90;;;;;;5008523;28;20132;-82
2022/04/15 02:02:12;;;;;;;22.33;9.95;;;7.60;99.90;;;;;;5032712;28;20090;-82
2022/04/15 02:04:37;;;;;;;19.02;9.55;;;7.60;99.90;;;;;;5015395;28;20076;-82
2022/04/15 02:07:04;;;;;;;19.63;9.57;;;7.60;99.90;;;;;;4983453;28;20426;-83
2022/04/15 02:09:30;;;;;;;16.48;9.10;;;7.60;99.90;;;;;;5028370;28;20510;-81
2022/04/15 02:11:56;;;;;;;17.10;10.07;;;7.60;99.90;;;;;;5016798;28;20051;-82
2022/04/15 02:14:22;;;;;;;19.52;10.20;;;7.60;99.90;;;;;;5013456;28;20120;-81
2022/04/15 02:16:51;;;;;;;14.55;9.00;;;7.60;99.90;;;;;;5013462;28;20533;-82
2022/04/15 02:19:17;;;;;;;18.98;9.60;;;7.60;99.90;;;;;;5031324;28;20063;-82
2022/04/15 02:21:43;;;;;;;15.95;9.52;;;7.70;99.90;;;;;;5032508;28;20120;-82
2022/04/15 02:24:09;;;;;;;19.20;11.20;;;7.70;99.90;;;;;;5002291;28;20037;-86
2022/04/15 02:26:34;;;;;;;14.75;8.90;;;7.60;99.90;;;;;;5000509;28;20474;-83
2022/04/15 02:29:00;;;;;;;14.18;8.57;;;7.70;99.90;;;;;;4993748;28;20040;-82
2022/04/15 02:31:26;;;;;;;19.30;9.70;;;7.70;99.90;;;;;;5014717;28;20292;-84
2022/04/15 02:33:52;;;;;;;19.08;9.82;;;7.70;99.90;;;;;;4983340;28;20107;-82
2022/04/15 02:36:18;;;;;;;14.23;8.98;;;7.80;99.90;;;;;;4999358;28;20045;-81
2022/04/15 02:38:44;;;;;;;18.92;9.48;;;7.70;99.90;;;;;;5032602;28;20060;-82
2022/04/15 02:41:10;;;;;;;15.60;9.10;;;7.80;99.90;;;;;;4999542;28;20554;-87
2022/04/15 02:43:40;;;;;;;16.17;8.80;;;7.80;99.90;;;;;;5032034;28;20119;-83
2022/04/15 02:46:07;;;;;;;18.95;9.13;;;7.80;99.90;;;;;;5016805;28;20390;-82
2022/04/15 02:48:34;;;;;;;12.57;8.65;;;7.80;99.90;;;;;;5026743;28;20033;-82
2022/04/15 02:51:00;;;;;;;16.23;8.82;;;7.90;99.90;;;;;;5028451;28;20049;-84
2022/04/15 02:53:26;;;;;;;17.13;8.27;;;7.90;99.90;;;;;;5002164;28;20045;-82
2022/04/15 02:55:53;;;;;;;19.08;9.00;;;7.90;99.90;;;;;;5033266;28;20045;-82
2022/04/15 02:58:19;;;;;;;13.38;8.80;;;7.80;99.90;;;;;;5029717;28;20060;-82
2022/04/15 03:00:45;;;;;;;13.55;8.30;;;7.90;99.90;;;;;;5017128;28;20470;-82
2022/04/15 03:03:11;;;;;;;13.60;9.38;;;8.00;99.90;;;;;;5015129;28;20033;-86
2022/04/15 03:05:41;;;;;;;19.40;9.07;;;8.00;99.90;;;;;;4992151;28;20052;-83
2022/04/15 03:08:07;;;;;;;20.25;8.82;;;8.00;99.90;;;;;;4994304;28;20095;-83
2022/04/15 03:10:33;;;;;;;16.08;9.35;;;8.00;99.90;;;;;;4982195;28;20449;-82
2022/04/15 03:12:59;;;;;;;13.07;8.55;;;8.00;99.90;;;;;;5011351;28;20063;-83
2022/04/15 03:15:25;;;;;;;17.08;8.63;;;8.00;99.90;;;;;;5012110;28;20049;-84
2022/04/15 03:17:51;;;;;;;15.27;9.07;;;8.00;99.90;;;;;;5032137;28;20128;-83
2022/04/15 03:20:17;;;;;;;11.82;8.75;;;8.00;99.90;;;;;;5000056;28;20186;-82
2022/04/15 03:22:44;;;;;;;15.75;9.38;;;8.00;99.90;;;;;;5003519;28;20033;-81
2022/04/15 03:25:17;;;;;;;18.42;8.65;;;8.00;99.90;;;;;;5025485;28;20056;-83
2022/04/15 03:27:43;;;;;;;19.40;9.00;;;8.20;99.90;;;;;;5011785;28;20051;-82
2022/04/15 03:30:09;;;;;;;16.58;8.27;;;8.00;99.90;;;;;;5015619;28;20423;-81
2022/04/15 03:32:47;;;;;;;13.18;8.75;;;8.00;99.90;;;;;;5033669;28;20365;-83
2022/04/15 03:35:14;;;;;;;14.23;8.88;;;8.00;99.90;;;;;;5014731;28;20041;-87
2022/04/15 03:37:39;;;;;;;10.95;7.82;;;8.00;99.90;;;;;;5011890;28;20103;-83
2022/04/15 03:40:06;;;;;;;17.70;8.68;;;8.00;99.90;;;;;;4994233;28;20049;-84
2022/04/15 03:42:41;;;;;;;15.07;8.57;;;8.00;99.90;;;;;;5016607;28;20458;-82
2022/04/15 03:45:07;;;;;;;13.40;7.80;;;8.00;99.90;;;;;;5015353;28;20064;-84
2022/04/15 03:47:33;;;;;;;15.85;8.60;;;8.10;99.90;;;;;;5005198;28;20203;-83
2022/04/15 03:49:58;;;;;;;14.15;8.50;;;8.10;99.90;;;;;;5013293;28;20423;-83
2022/04/15 03:52:24;;;;;;;11.13;7.93;;;8.10;99.90;;;;;;5023638;28;20119;-82
2022/04/15 03:54:50;;;;;;;13.32;7.93;;;8.10;99.90;;;;;;5005605;28;20041;-82
2022/04/15 03:57:15;;;;;;;12.57;7.78;;;8.10;99.90;;;;;;4998658;28;20072;-87
2022/04/15 03:59:41;;;;;;;13.98;8.45;;;8.10;99.90;;;;;;5015038;28;20049;-82
2022/04/15 04:02:07;;;;;;;14.10;8.25;;;8.10;99.90;;;;;;5028268;28;20120;-82
2022/04/15 04:04:32;;;;;;;14.75;8.23;;;8.10;99.90;;;;;;5010693;28;20038;-83
2022/04/15 04:06:58;;;;;;;17.13;9.02;;;8.20;99.90;;;;;;5001539;28;20041;-84
2022/04/15 04:09:24;;;;;;;18.42;10.48;;;8.20;99.90;;;;;;5013765;28;20039;-81
2022/04/15 04:11:49;;;;;;;17.15;10.85;;;8.20;99.90;;;;;;5015052;28;20371;-85
2022/04/15 04:14:15;;;;;;;18.77;11.35;;;8.20;99.90;;;;;;4999113;28;20064;-85
2022/04/15 04:16:42;;;;;;;14.15;10.82;;;8.20;99.90;;;;;;5028201;28;20748;-83
2022/04/15 04:19:07;;;;;;;13.30;9.57;;;8.10;99.90;;;;;;4995718;28;20049;-85
2022/04/15 04:21:33;;;;;;;11.73;9.05;;;8.10;99.90;;;;;;5013813;28;20066;-83
2022/04/15 04:23:59;;;;;;;10.10;7.70;;;8.10;99.90;;;;;;5014520;28;20049;-83
2022/04/15 04:26:25;;;;;;;11.23;8.75;;;8.00;99.90;;;;;;4992096;28;20099;-83
2022/04/15 04:28:50;;;;;;;9.95;7.22;;;8.00;99.90;;;;;;5010255;28;20033;-83
2022/04/15 04:31:17;;;;;;;10.18;7.65;;;7.90;99.90;;;;;;5015252;28;20045;-82
2022/04/15 04:33:43;;;;;;;9.25;7.05;;;7.90;99.90;;;;;;4994885;28;20041;-82
2022/04/15 04:36:08;;;;;;;8.70;6.72;;;7.90;99.90;;;;;;4979724;28;20048;-83
2022/04/15 04:38:34;;;;;;;9.35;7.13;;;7.90;99.90;;;;;;4975122;28;20047;-84
2022/04/15 04:41:00;;;;;;;8.70;7.07;;;7.80;99.90;;;;;;5027131;28;20048;-82
2022/04/15 04:43:25;;;;;;;8.90;7.18;;;7.80;99.90;;;;;;5003452;28;20045;-82
2022/04/15 04:45:51;;;;;;;8.93;6.57;;;7.80;99.90;;;;;;5026473;28;20095;-81
2022/04/15 04:48:17;;;;;;;10.85;6.75;;;7.80;99.90;;;;;;5013824;28;20037;-82
2022/04/15 04:50:45;;;;;;;8.80;6.95;;;7.80;99.90;;;;;;5008259;28;20032;-82
2022/04/15 04:53:11;;;;;;;9.77;7.00;;;7.70;99.90;;;;;;5014209;28;20406;-83
2022/04/15 04:55:38;;;;;;;10.55;7.35;;;7.70;99.90;;;;;;4996897;28;20029;-83
2022/04/15 04:58:04;;;;;;;11.00;7.00;;;7.70;99.90;;;;;;5005328;28;20045;-82
2022/04/15 05:00:29;;;;;;;10.02;7.50;;;7.70;99.90;;;;;;5021481;28;20547;-83
2022/04/15 05:02:55;;;;;;;9.95;6.70;;;7.80;99.90;;;;;;4997876;28;20068;-83
2022/04/15 05:05:21;;;;;;;7.75;6.93;;;7.70;99.90;;;;;;4982600;28;20098;-85
2022/04/15 05:07:46;;;;;;;7.70;6.25;;;7.70;99.90;;;;;;5014811;28;20033;-82
2022/04/15 05:10:12;;;;;;;8.02;5.95;;;7.70;99.90;;;;;;4985684;28;20045;-81
2022/04/15 05:12:38;;;;;;;9.18;5.78;;;7.70;99.90;;;;;;5005425;28;20037;-82
2022/04/15 05:15:04;;;;;;;9.90;6.95;;;7.80;99.90;;;;;;4992804;28;20114;-82
2022/04/15 05:17:29;;;;;;;9.63;6.65;;;7.70;99.90;;;;;;5013936;28;20386;-82
2022/04/15 05:19:55;;;;;;;7.40;5.95;;;7.70;99.90;;;;;;4995615;28;20049;-83
2022/04/15 05:22:23;;;;;;;7.72;5.15;;;7.80;99.90;;;;;;5012066;28;20115;-86
2022/04/15 05:24:49;;;;;;;6.60;4.78;;;7.70;99.90;;;;;;5008364;28;20045;-82
2022/04/15 05:27:15;;;;;;;7.15;4.80;;;7.70;99.90;;;;;;5030783;28;20354;-81
2022/04/15 05:29:41;;;;;;;7.45;5.00;;;7.70;99.90;;;;;;5012731;28;20828;-81
2022/04/15 05:32:06;;;;;;;6.28;4.65;;;7.80;99.90;;;;;;5030619;28;20385;-81
2022/04/15 05:34:32;;;;;;;4.97;4.20;;;7.70;99.90;;;;;;5002810;28;20120;-81
2022/04/15 05:36:58;;;;;;;5.82;4.10;;;7.70;99.90;;;;;;4998052;28;20131;-81
2022/04/15 05:39:24;;;;;;;6.03;4.18;;;7.70;99.90;;;;;;5024363;28;20151;-84
2022/04/15 05:41:49;;;;;;;6.60;3.63;;;7.70;99.90;;;;;;5006074;28;20048;-82
2022/04/15 05:44:16;;;;;;;5.57;4.13;;;7.70;99.90;;;;;;4977794;28;20045;-84
2022/04/15 05:46:45;;;;;;;8.63;3.95;;;7.70;99.90;;;;;;4985616;28;20056;-81
2022/04/15 05:49:15;;;;;;;5.85;3.97;;;7.70;99.90;;;;;;5024869;28;20111;-82
2022/04/15 05:51:42;;;;;;;6.90;4.05;;;7.70;99.90;;;;;;5015689;28;20037;-83
2022/04/15 05:54:08;;;;;;;6.65;4.30;;;7.70;99.90;;;;;;5020606;28;20108;-85
2022/04/15 05:56:34;;;;;;;6.45;4.75;;;7.70;99.90;;;;;;5013855;28;20033;-81
2022/04/15 05:59:00;;;;;;;8.38;5.13;;;7.60;99.90;;;;;;5014716;28;20363;-83
2022/04/15 06:01:26;;;;;;;7.50;5.38;;;7.70;99.90;;;;;;4993058;28;20049;-86
2022/04/15 06:03:51;;;;;;;8.38;6.15;;;7.60;99.90;;;;;;5030371;28;20548;-81
2022/04/15 06:06:17;;;;;;;6.45;5.60;;;7.70;99.90;;;;;;5032730;28;20037;-81
2022/04/15 06:08:43;;;;;;;9.32;5.80;;;7.70;99.90;;;;;;5015996;28;20068;-83
2022/04/15 06:11:09;;;;;;;8.77;6.25;;;7.70;99.90;;;;;;5018019;28;20045;-82
2022/04/15 06:13:34;;;;;;;7.53;5.85;;;7.70;99.90;;;;;;5013528;28;20490;-83
2022/04/15 06:16:00;;;;;;;8.60;6.28;;;7.70;99.90;;;;;;5016727;28;20425;-82
2022/04/15 06:18:34;;;;;;;8.80;5.95;;;7.80;99.90;;;;;;4982721;28;20352;-86
2022/04/15 06:21:00;;;;;;;10.35;6.47;;;7.70;99.90;;;;;;5018235;28;20049;-82
2022/04/15 06:23:27;;;;;;;7.90;6.50;;;7.70;99.90;;;;;;4989403;28;20037;-85
2022/04/15 06:25:52;;;;;;;12.77;6.43;;;7.70;99.90;;;;;;4994516;28;20045;-81
2022/04/15 06:28:21;;;;;;;11.00;6.90;;;7.70;99.90;;;;;;5018555;28;20441;-82
2022/04/15 06:30:47;;;;;;;11.70;7.28;;;7.70;99.90;;;;;;5016455;28;20041;-82
2022/04/15 06:33:15;;;;;;;10.50;7.10;;;7.80;99.90;;;;;;5015600;28;20095;-82
2022/04/15 06:35:41;;;;;;;9.63;7.32;;;7.80;99.90;;;;;;5008573;28;20083;-83
2022/04/15 06:38:07;;;;;;;12.80;8.40;;;7.80;99.90;;;;;;4982315;28;20076;-82
2022/04/15 06:40:33;;;;;;;14.35;9.40;;;7.90;99.90;;;;;;5022648;28;20037;-82
2022/04/15 06:42:59;;;;;;;11.38;7.60;;;7.90;99.90;;;;;;4988155;28;20372;-82
2022/04/15 06:45:25;;;;;;;11.50;7.75;;;8.00;99.90;;;;;;5005130;28;20146;-83
2022/04/15 06:47:51;;;;;;;12.68;8.40;;;8.00;99.90;;;;;;4984736;28;20040;-81
2022/04/15 06:50:19;;;;;;;16.42;8.05;;;8.00;99.90;;;;;;5008071;28;20045;-81
2022/04/15 06:52:44;;;;;;;13.77;7.97;;;8.10;99.90;;;;;;5032911;28;20063;-84
2022/04/15 06:55:10;;;;;;;12.40;8.48;;;8.20;99.90;;;;;;4999665;28;20033;-82
2022/04/15 06:57:36;;;;;;;14.02;8.55;;;8.20;99.90;;;;;;5029502;28;20467;-82
2022/04/15 07:00:04;;;;;;;11.07;8.35;;;8.30;99.90;;;;;;5029934;28;20043;-81
2022/04/15 07:02:29;;;;;;;13.50;8.25;;;8.30;99.90;;;;;;5017263;28;20045;-84
2022/04/15 07:04:55;;;;;;;10.85;8.77;;;8.40;99.90;;;;;;5017196;28;20469;-84
2022/04/15 07:07:21;;;;;;;14.63;9.35;;;8.40;99.90;;;;;;5033974;28;20048;-82
2022/04/15 07:09:49;;;;;;;15.00;10.07;;;8.50;99.90;;;;;;4993050;28;20041;-82
2022/04/15 07:12:16;;;;;;;17.73;10.98;;;8.50;99.90;;;;;;4982241;28;20050;-83
2022/04/15 07:14:41;;;;;;;15.55;10.20;;;8.50;99.90;;;;;;5013019;28;20060;-82
2022/04/15 07:17:07;;;;;;;15.15;9.88;;;8.50;99.90;;;;;;4997513;28;20136;-82
2022/04/15 07:19:33;;;;;;;19.05;10.65;;;8.50;99.90;;;;;;4996805;28;20072;-82
2022/04/15 07:21:58;;;;;;;19.88;10.88;;;8.60;99.90;;;;;;4964953;28;20051;-82
2022/04/15 07:24:26;;;;;;;16.95;10.30;;;8.60;99.90;;;;;;4997413;28;20355;-81
2022/04/15 07:26:51;;;;;;;18.00;11.15;;;8.70;99.90;;;;;;4996687;28;20188;-82
2022/04/15 07:29:18;;;;;;;18.45;11.98;;;8.70;99.90;;;;;;4997117;28;20561;-82
2022/04/15 07:31:43;;;;;;;24.35;12.00;;;8.70;99.90;;;;;;5013048;28;20045;-81
2022/04/15 07:34:09;;;;;;;17.30;10.95;;;8.70;99.90;;;;;;4997273;28;20463;-82
2022/04/15 07:39:02;;;;;;;21.45;12.48;;;8.80;99.90;;;;;;5002047;28;20041;-82
2022/04/15 07:41:28;;;;;;;18.60;11.18;;;8.90;99.90;;;;;;5000616;28;20504;-81
2022/04/15 07:43:53;;;;;;;21.63;11.95;;;9.00;99.90;;;;;;5016206;28;20045;-81
2022/04/15 07:46:19;;;;;;;19.52;11.63;;;9.00;99.90;;;;;;5016617;28;20430;-83
2022/04/15 07:48:45;;;;;;;33.67;19.60;;;9.10;99.90;;;;;;4983082;28;20044;-83
2022/04/15 07:51:10;;;;;;;24.98;13.63;;;9.10;99.90;;;;;;5000120;28;20124;-82
2022/04/15 07:53:37;;;;;;;19.13;13.30;;;9.30;99.90;;;;;;5015146;28;20458;-83
2022/04/15 07:56:03;;;;;;;23.85;12.05;;;9.40;99.90;;;;;;5032616;28;20041;-82
2022/04/15 07:58:29;;;;;;;19.30;11.57;;;9.50;99.90;;;;;;5000016;28;20586;-83
2022/04/15 08:00:55;;;;;;;18.25;12.10;;;9.60;99.90;;;;;;5015866;28;20130;-83
2022/04/15 08:03:24;;;;;;;20.38;13.20;;;9.70;99.90;;;;;;5032709;28;20132;-82
2022/04/15 08:05:50;;;;;;;20.35;12.10;;;9.70;99.90;;;;;;5021318;28;20205;-83
2022/04/15 08:08:15;;;;;;;24.10;14.05;;;9.70;99.90;;;;;;5031794;28;20140;-85
2022/04/15 08:10:41;;;;;;;18.58;11.95;;;9.80;99.90;;;;;;5031873;28;20478;-82
2022/04/15 08:13:07;;;;;;;20.98;12.05;;;9.70;99.90;;;;;;5016518;28;20039;-82
2022/04/15 08:15:33;;;;;;;21.15;12.60;;;9.80;99.90;;;;;;5015887;28;20041;-83
2022/04/15 08:18:00;;;;;;;22.27;11.00;;;9.70;99.90;;;;;;4988210;28;20067;-82
2022/04/15 08:20:26;;;;;;;15.52;9.75;;;9.80;99.90;;;;;;5015968;28;20064;-81
2022/04/15 08:22:52;;;;;;;17.65;9.15;;;9.90;99.90;;;;;;5013546;28;20128;-84
2022/04/15 08:25:18;;;;;;;13.93;8.40;;;9.90;99.90;;;;;;5031549;28;20386;-84
2022/04/15 08:27:43;;;;;;;11.23;7.80;;;10.00;99.90;;;;;;5014335;28;20043;-81
2022/04/15 08:30:09;;;;;;;13.52;7.78;;;10.00;99.90;;;;;;5026194;28;20041;-84
2022/04/15 08:32:35;;;;;;;10.25;7.38;;;10.10;99.90;;;;;;5015794;28;20037;-85
2022/04/15 08:35:06;;;;;;;10.57;7.20;;;10.20;99.90;;;;;;5010021;28;20236;-82
2022/04/15 08:37:33;;;;;;;9.95;6.70;;;10.30;99.90;;;;;;5019089;28;20032;-81
2022/04/15 08:39:59;;;;;;;13.00;6.82;;;10.40;99.90;;;;;;5023885;28;20076;-82
2022/04/15 08:42:26;;;;;;;14.05;7.63;;;10.40;99.90;;;;;;5009819;28;20509;-80
2022/04/15 08:44:53;;;;;;;15.40;7.55;;;10.40;99.90;;;;;;5021533;28;20538;-80
2022/04/15 08:47:19;;;;;;;11.45;8.25;;;10.40;99.90;;;;;;5027911;28;20140;-80
2022/04/15 08:49:45;;;;;;;11.80;8.00;;;10.40;99.90;;;;;;5012726;28;20042;-80
2022/04/15 08:52:15;;;;;;;12.48;8.32;;;10.40;99.90;;;;;;5021401;28;20033;-80
2022/04/15 08:54:41;;;;;;;11.30;7.75;;;10.50;99.90;;;;;;5014676;28;20129;-80
2022/04/15 08:57:07;;;;;;;18.05;8.27;;;10.60;99.90;;;;;;5024273;28;20127;-80
2022/04/15 08:59:34;;;;;;;12.43;7.80;;;10.70;99.90;;;;;;5016804;28;20044;-82
2022/04/15 09:02:00;;;;;;;11.38;7.18;;;10.90;99.90;;;;;;4997381;28;20048;-82
2022/04/15 09:04:26;;;;;;;13.88;7.43;;;11.10;99.90;;;;;;5022921;28;20053;-80
2022/04/15 09:06:56;;;;;;;16.13;9.65;;;11.20;99.90;;;;;;5008110;28;20049;-81
2022/04/15 09:09:30;;;;;;;26.63;14.50;;;11.30;99.90;;;;;;5007664;28;20067;-80
2022/04/15 09:11:57;;;;;;;10.85;6.85;;;11.50;99.90;;;;;;5006171;28;20177;-83
2022/04/15 09:14:23;;;;;;;11.68;6.60;;;11.60;99.90;;;;;;5025290;28;20046;-82
2022/04/15 09:16:49;;;;;;;9.75;5.75;;;11.80;99.90;;;;;;5017189;28;20427;-81
2022/04/15 09:19:16;;;;;;;9.88;6.50;;;11.80;99.90;;;;;;5000614;28;20041;-82
2022/04/15 09:21:55;;;;;;;10.40;6.32;;;12.00;99.90;;;;;;5013207;28;20048;-81
2022/04/15 09:24:32;;;;;;;8.07;6.65;;;12.30;99.90;;;;;;5016862;28;20041;-80
2022/04/15 09:27:01;;;;;;;;;;;12.30;99.90;;;;;;5025470;28;20116;-81
2022/04/15 09:29:38;;;;;;;7.68;6.25;;;12.40;99.90;;;;;;5014391;28;20362;-83
2022/04/15 09:32:14;;;;;;;13.95;6.95;;;12.50;99.90;;;;;;5010133;28;20050;-81
2022/04/15 09:34:57;;;;;;;19.48;7.80;;;12.50;99.90;;;;;;4999363;28;20121;-86
2022/04/15 09:37:31;;;;;;;13.85;7.38;;;12.60;99.90;;;;;;5002316;28;20371;-81
2022/04/15 09:40:07;;;;;;;12.52;6.47;;;12.70;99.90;;;;;;5013742;28;20120;-81
2022/04/15 09:42:36;;;;;;;9.65;6.47;;;12.80;99.90;;;;;;5007306;28;20041;-80
2022/04/15 09:45:11;;;;;;;15.88;7.55;;;12.90;99.90;;;;;;5013476;28;20580;-80
2022/04/15 09:47:37;;;;;;;8.98;6.72;;;13.20;99.90;;;;;;5007813;28;20048;-81
2022/04/15 09:50:03;;;;;;;10.85;6.63;;;14.30;99.90;;;;;;5006151;28;20033;-80
2022/04/15 09:52:29;;;;;;;11.35;6.60;;;15.10;99.90;;;;;;4983133;28;20037;-82
2022/04/15 09:54:58;;;;;;;10.93;6.28;;;15.20;99.90;;;;;;4975340;28;20047;-82
2022/04/15 09:57:25;;;;;;;11.07;6.45;;;14.90;99.90;;;;;;5019608;28;20056;-81
2022/04/15 09:59:52;;;;;;;10.07;6.38;;;14.50;99.90;;;;;;5012765;28;20053;-82
2022/04/15 10:02:21;;;;;;;9.50;6.10;;;14.20;99.90;;;;;;5009509;28;20774;-79
2022/04/15 10:04:47;;;;;;;11.77;6.22;;;14.00;99.90;;;;;;5006825;28;20042;-81
2022/04/15 10:07:13;;;;;;;9.15;6.45;;;13.80;99.90;;;;;;4998026;28;20049;-80
2022/04/15 10:09:41;;;;;;;11.10;6.40;;;13.40;99.90;;;;;;5007286;28;20033;-80
2022/04/15 10:12:07;;;;;;;8.98;7.03;;;13.10;99.90;;;;;;5011524;28;20116;-82
2022/04/15 10:14:34;;;;;;;11.85;7.13;;;13.00;99.90;;;;;;4979130;28;20569;-81
2022/04/15 10:17:00;;;;;;;15.15;7.07;;;12.70;99.90;;;;;;4991637;28;20050;-81
2022/04/15 10:19:26;;;;;;;10.38;7.13;;;12.60;99.90;;;;;;5004590;28;20040;-80
2022/04/15 10:21:52;;;;;;;12.98;7.35;;;12.60;99.90;;;;;;5014308;28;20124;-80
2022/04/15 10:24:18;;;;;;;11.30;6.57;;;12.50;99.90;;;;;;4981293;28;20470;-81
2022/04/15 10:26:46;;;;;;;9.55;6.22;;;12.60;99.90;;;;;;5012576;28;20045;-84
2022/04/15 10:29:13;;;;;;;10.80;6.05;;;12.70;99.90;;;;;;5014094;28;20462;-82
2022/04/15 10:31:43;;;;;;;9.50;5.80;;;12.70;99.90;;;;;;4971248;28;20038;-80
2022/04/15 10:34:17;;;;;;;8.43;6.30;;;12.60;99.90;;;;;;4989999;28;20064;-80
2022/04/15 10:36:48;;;;;;;10.30;6.47;;;12.60;99.90;;;;;;5020776;28;20041;-80
2022/04/15 10:39:17;;;;;;;14.00;6.97;;;12.70;99.90;;;;;;5006156;28;20060;-80
2022/04/15 10:41:42;;;;;;;10.55;6.65;;;12.70;99.90;;;;;;4999485;28;20416;-80
2022/04/15 10:44:23;;;;;;;9.43;6.88;;;12.70;99.90;;;;;;5009322;28;20037;-81
2022/04/15 10:46:49;;;;;;;10.13;7.13;;;12.70;99.90;;;;;;5013623;28;20571;-82
2022/04/15 10:49:27;;;;;;;11.93;7.43;;;12.70;99.90;;;;;;5017996;28;20723;-81
2022/04/15 10:51:59;;;;;;;9.35;7.35;;;12.70;99.90;;;;;;5027246;28;20098;-81
2022/04/15 10:54:38;;;;;;;8.27;6.75;;;12.80;99.90;;;;;;5009481;28;20053;-84
2022/04/15 10:57:14;;;;;;;7.75;6.20;;;12.80;99.90;;;;;;5030433;28;20059;-81
2022/04/15 11:02:45;;;;;;;10.57;6.25;;;12.80;99.90;;;;;;5024146;28;20036;-81
2022/04/15 11:05:40;;;;;;;9.70;6.25;;;12.70;99.90;;;;;;5014279;28;20049;-83
2022/04/15 11:08:10;;;;;;;11.18;6.30;;;12.80;99.90;;;;;;5001483;28;20041;-80
2022/04/15 11:10:42;;;;;;;9.52;6.57;;;12.80;99.90;;;;;;5015692;28;20214;-81
2022/04/15 11:13:09;;;;;;;10.05;6.95;;;12.80;99.90;;;;;;5024124;28;20519;-80
2022/04/15 11:15:54;;;;;;;9.60;6.60;;;12.80;99.90;;;;;;5014901;28;20056;-81
2022/04/15 11:18:20;;;;;;;9.75;5.93;;;12.70;99.90;;;;;;5000494;28;20079;-80
2022/04/15 11:20:46;;;;;;;10.85;6.93;;;12.70;99.90;;;;;;5030227;28;20067;-81
2022/04/15 11:23:12;;;;;;;9.23;6.78;;;12.80;99.90;;;;;;5035748;28;20041;-81
2022/04/15 11:25:45;;;;;;;8.65;6.47;;;12.80;99.90;;;;;;5023308;28;20041;-78
2022/04/15 11:28:11;;;;;;;8.63;6.40;;;12.80;99.90;;;;;;5014714;28;20079;-79
2022/04/15 11:30:37;;;;;;;11.05;6.60;;;12.80;99.90;;;;;;5024253;28;20041;-81
2022/04/15 11:33:06;;;;;;;12.30;7.45;;;12.80;99.90;;;;;;5021414;28;20034;-79
2022/04/15 11:35:36;;;;;;;13.25;6.85;;;12.80;99.90;;;;;;4969858;28;20129;-80
2022/04/15 11:38:04;;;;;;;13.25;6.63;;;12.60;99.90;;;;;;5011425;28;20127;-80
2022/04/15 11:40:35;;;;;;;12.02;8.20;;;12.60;99.90;;;;;;5003103;28;20045;-81
2022/04/15 11:43:05;;;;;;;10.98;7.53;;;12.60;99.90;;;;;;5015419;28;20041;-79
2022/04/15 11:45:36;;;;;;;10.63;7.53;;;12.50;99.90;;;;;;5011322;28;20041;-83
2022/04/15 11:48:23;;;;;;;12.05;7.43;;;12.50;99.90;;;;;;5020198;28;20104;-81
2022/04/15 11:50:53;;;;;;;11.55;7.32;;;12.60;99.90;;;;;;5025379;28;20099;-81
2022/04/15 11:53:20;;;;;;;8.00;6.57;;;12.70;99.90;;;;;;5006655;28;20053;-80
2022/04/15 11:55:47;;;;;;;11.65;8.43;;;12.90;99.90;;;;;;4996190;28;20053;-81
2022/04/15 11:58:12;;;;;;;10.85;6.85;;;13.00;99.90;;;;;;5005653;28;20056;-81
2022/04/15 12:00:39;;;;;;;12.45;7.25;;;13.10;99.90;;;;;;5028649;28;20036;-81
2022/04/15 12:03:06;;;;;;;10.77;7.00;;;13.30;99.90;;;;;;5019423;28;20049;-83
2022/04/15 12:05:35;;;;;;;10.20;7.18;;;13.30;99.90;;;;;;5020090;28;20040;-82
2022/04/15 12:08:00;;;;;;;7.05;5.88;;;13.20;99.90;;;;;;5020099;28;20470;-81
2022/04/15 12:10:29;;;;;;;8.57;6.50;;;13.00;99.90;;;;;;5028858;28;20041;-81
2022/04/15 12:12:55;;;;;;;12.50;7.88;;;12.90;99.90;;;;;;4999492;28;20052;-83
2022/04/15 12:15:25;;;;;;;9.38;7.00;;;12.90;99.90;;;;;;5013834;28;20053;-81
2022/04/15 12:17:52;;;;;;;8.30;7.18;;;12.70;99.90;;;;;;5042007;28;20055;-84
2022/04/15 12:20:18;;;;;;;9.35;7.30;;;12.50;99.90;;;;;;5004686;28;20431;-84
2022/04/15 12:22:46;;;;;;;9.23;7.03;;;12.40;99.90;;;;;;5023617;28;20049;-81
2022/04/15 12:25:19;;;;;;;13.55;7.97;;;12.40;99.90;;;;;;4991979;28;20363;-81
2022/04/15 12:27:46;;;;;;;10.27;7.50;;;12.40;99.90;;;;;;5007600;28;20076;-81
2022/04/15 12:30:14;;;;;;;10.73;7.55;;;12.30;99.90;;;;;;4994243;28;20038;-80
2022/04/15 12:32:40;;;;;;;10.75;7.43;;;12.30;99.90;;;;;;5005198;28;20049;-82
2022/04/15 12:35:10;;;;;;;11.15;7.63;;;12.20;99.90;;;;;;5015174;28;20095;-81
2022/04/15 12:37:49;;;;;;;10.55;7.45;;;12.30;99.90;;;;;;5030581;28;20045;-81
2022/04/15 12:40:15;;;;;;;10.00;7.05;;;12.30;99.90;;;;;;5005547;28;20165;-81
2022/04/15 12:42:43;;;;;;;9.70;7.07;;;12.20;99.90;;;;;;5027774;28;20115;-81
2022/04/15 12:45:16;;;;;;;10.70;7.22;;;12.10;99.90;;;;;;5027005;28;20528;-81
2022/04/15 12:47:46;;;;;;;11.07;7.53;;;12.00;99.90;;;;;;5006630;28;20047;-80
2022/04/15 12:50:26;;;;;;;14.18;7.95;;;11.90;99.90;;;;;;4994753;28;20041;-82